Time;durP1;ratioP1;P1;durP2;ratioP2;P2;SDS_P1;SDS_P2;PMS_P1;PMS_P2;Temp;Humidity;BMP_temperature;BMP_pressure;BME280_temperature;BME280_humidity;BME280_pressure;Samples;Min_cycle;Max_cycle;Signal;HPM_P1;HPM_P2
2023/08/25 00:01:28;;;;;;;19.38;12.98;;;;;;;;;;5020671;27;90051;-62
2023/08/25 00:03:54;;;;;;;18.60;12.57;;;;;;;;;;5022291;27;89470;-62
2023/08/25 00:06:21;;;;;;;18.25;12.70;;;;;;;;;;5029301;27;89762;-63
2023/08/25 00:08:48;;;;;;;19.60;13.40;;;;;;;;;;5020495;27;90016;-61
2023/08/25 00:11:14;;;;;;;18.17;12.88;;;;;;;;;;5018106;27;90257;-62
2023/08/25 00:13:41;;;;;;;18.60;13.45;;;;;;;;;;5021938;27;90162;-63
2023/08/25 00:16:09;;;;;;;26.10;13.23;;;;;;;;;;5023777;27;90830;-63
2023/08/25 00:18:35;;;;;;;21.70;13.93;;;;;;;;;;5019723;27;89072;-62
2023/08/25 00:21:02;;;;;;;18.23;14.35;;;;;;;;;;5027105;27;90215;-62
2023/08/25 00:23:28;;;;;;;20.55;14.20;;;;;;;;;;5019521;27;89538;-62
2023/08/25 00:25:55;;;;;;;18.60;13.88;;;;;;;;;;5019374;27;91196;-62
2023/08/25 00:28:21;;;;;;;23.33;15.38;;;;;;;;;;5021584;27;91292;-62
2023/08/25 00:30:48;;;;;;;19.77;15.35;;;;;;;;;;5019827;27;89161;-62
2023/08/25 00:33:15;;;;;;;22.50;16.20;;;;;;;;;;5018390;27;89006;-62
2023/08/25 00:35:42;;;;;;;23.30;15.50;;;;;;;;;;5019211;27;89967;-63
2023/08/25 00:38:08;;;;;;;18.88;15.85;;;;;;;;;;5018330;27;89860;-63
2023/08/25 00:40:35;;;;;;;22.17;16.23;;;;;;;;;;5018791;27;91194;-62
2023/08/25 00:43:03;;;;;;;24.08;16.05;;;;;;;;;;5018454;27;89566;-62
2023/08/25 00:45:32;;;;;;;21.52;16.88;;;;;;;;;;5021113;27;89074;-62
2023/08/25 00:47:58;;;;;;;28.83;18.35;;;;;;;;;;5017912;27;89965;-63
2023/08/25 00:50:26;;;;;;;19.38;16.85;;;;;;;;;;5020133;27;89944;-62
2023/08/25 00:52:52;;;;;;;27.25;19.08;;;;;;;;;;5015830;27;89384;-62
2023/08/25 00:55:19;;;;;;;25.52;18.35;;;;;;;;;;5021111;27;89962;-62
2023/08/25 00:57:45;;;;;;;25.02;19.27;;;;;;;;;;5019702;27;89515;-62
2023/08/25 01:00:12;;;;;;;23.73;19.25;;;;;;;;;;5018409;27;89023;-62
2023/08/25 01:02:38;;;;;;;30.10;20.15;;;;;;;;;;5021946;27;89897;-61
2023/08/25 01:05:07;;;;;;;25.25;20.15;;;;;;;;;;5019218;27;89599;-61
2023/08/25 01:07:33;;;;;;;27.50;21.48;;;;;;;;;;5023850;28;91438;-62
2023/08/25 01:09:59;;;;;;;35.08;21.63;;;;;;;;;;5025641;27;89448;-63
2023/08/25 01:12:33;;;;;;;28.80;19.77;;;;;;;;;;5018570;27;89081;-63
2023/08/25 01:15:04;;;;;;;23.48;19.15;;;;;;;;;;5016294;27;91194;-62
2023/08/25 01:17:42;;;;;;;23.40;19.35;;;;;;;;;;5018822;27;89655;-62
2023/08/25 01:20:09;;;;;;;25.58;20.77;;;;;;;;;;5023513;27;89016;-61
2023/08/25 01:22:50;;;;;;;26.95;19.27;;;;;;;;;;5020932;27;89611;-61
2023/08/25 01:25:16;;;;;;;26.83;19.70;;;;;;;;;;5022302;27;89175;-62
2023/08/25 01:27:43;;;;;;;29.60;22.02;;;;;;;;;;5017124;27;90863;-63
2023/08/25 01:30:09;;;;;;;34.90;24.42;;;;;;;;;;5022775;27;92481;-62
2023/08/25 01:32:37;;;;;;;41.25;26.83;;;;;;;;;;5018061;27;89164;-64
2023/08/25 01:35:04;;;;;;;37.60;27.00;;;;;;;;;;5021974;27;89078;-63
2023/08/25 01:37:32;;;;;;;36.53;26.48;;;;;;;;;;5026712;27;90688;-62
2023/08/25 01:40:00;;;;;;;38.25;28.00;;;;;;;;;;5017003;27;89331;-62
2023/08/25 01:42:28;;;;;;;40.83;28.05;;;;;;;;;;5021959;27;90037;-62
2023/08/25 01:44:55;;;;;;;42.25;28.30;;;;;;;;;;5014804;27;89251;-61
2023/08/25 01:47:24;;;;;;;41.53;28.77;;;;;;;;;;5018255;27;89974;-62
2023/08/25 01:49:52;;;;;;;42.07;29.23;;;;;;;;;;5019792;27;89596;-62
2023/08/25 01:52:18;;;;;;;42.03;29.00;;;;;;;;;;5015465;27;88923;-63
2023/08/25 01:54:45;;;;;;;40.90;29.90;;;;;;;;;;5014685;27;91017;-63
2023/08/25 01:57:11;;;;;;;36.40;28.92;;;;;;;;;;5015247;27;89878;-63
2023/08/25 01:59:38;;;;;;;42.67;31.90;;;;;;;;;;5018717;27;90196;-62
2023/08/25 02:02:04;;;;;;;45.38;33.42;;;;;;;;;;5019774;27;89809;-63
2023/08/25 02:04:30;;;;;;;45.17;31.65;;;;;;;;;;5020787;27;89466;-63
2023/08/25 02:06:57;;;;;;;42.47;31.52;;;;;;;;;;5016024;27;89823;-64
2023/08/25 02:09:23;;;;;;;41.33;30.67;;;;;;;;;;5021802;27;89543;-63
2023/08/25 02:11:50;;;;;;;43.05;31.83;;;;;;;;;;5019015;27;89775;-63
2023/08/25 02:14:16;;;;;;;47.65;31.85;;;;;;;;;;5018355;27;91378;-63
2023/08/25 02:16:42;;;;;;;48.20;35.10;;;;;;;;;;5018175;27;90555;-63
2023/08/25 02:19:09;;;;;;;50.28;34.45;;;;;;;;;;5018670;27;90004;-63
2023/08/25 02:21:35;;;;;;;49.30;35.47;;;;;;;;;;5017750;27;90044;-64
2023/08/25 02:24:02;;;;;;;47.97;34.65;;;;;;;;;;5030897;27;90111;-61
2023/08/25 02:26:28;;;;;;;49.45;34.97;;;;;;;;;;5016237;27;90975;-62
2023/08/25 02:28:55;;;;;;;53.15;33.92;;;;;;;;;;5016009;27;89594;-61
2023/08/25 02:31:21;;;;;;;45.90;34.85;;;;;;;;;;5015167;27;90035;-61
2023/08/25 02:33:48;;;;;;;50.33;35.78;;;;;;;;;;5015082;27;89820;-61
2023/08/25 02:36:14;;;;;;;48.50;33.88;;;;;;;;;;5018493;27;89740;-61
2023/08/25 02:38:41;;;;;;;44.25;33.33;;;;;;;;;;5018214;27;89108;-61
2023/08/25 02:41:07;;;;;;;45.35;31.95;;;;;;;;;;5018683;27;89987;-62
2023/08/25 02:43:33;;;;;;;51.50;35.90;;;;;;;;;;5017097;27;89703;-61
2023/08/25 02:46:00;;;;;;;51.65;35.65;;;;;;;;;;5020620;27;89973;-61
2023/08/25 02:48:26;;;;;;;51.13;34.97;;;;;;;;;;5014604;27;89145;-61
2023/08/25 02:50:53;;;;;;;54.67;36.28;;;;;;;;;;5019997;27;90133;-62
2023/08/25 02:53:19;;;;;;;56.58;38.17;;;;;;;;;;5016038;27;89979;-62
2023/08/25 02:55:46;;;;;;;52.17;36.28;;;;;;;;;;5017180;27;90535;-62
2023/08/25 02:58:12;;;;;;;47.75;34.13;;;;;;;;;;5014659;27;89140;-62
2023/08/25 03:00:38;;;;;;;41.47;31.95;;;;;;;;;;5017870;27;91244;-62
2023/08/25 03:03:05;;;;;;;47.33;32.80;;;;;;;;;;5017804;27;89573;-62
2023/08/25 03:05:32;;;;;;;41.60;31.48;;;;;;;;;;5018316;27;90253;-61
2023/08/25 03:07:58;;;;;;;41.25;29.60;;;;;;;;;;5019886;27;90087;-63
2023/08/25 03:10:24;;;;;;;45.80;30.02;;;;;;;;;;5013801;27;89889;-62
2023/08/25 03:12:51;;;;;;;38.38;28.60;;;;;;;;;;5016728;27;90507;-62
2023/08/25 03:15:17;;;;;;;37.40;28.58;;;;;;;;;;5013587;27;89174;-62
2023/08/25 03:17:44;;;;;;;46.78;31.42;;;;;;;;;;5015337;27;89670;-62
2023/08/25 03:20:10;;;;;;;42.88;31.27;;;;;;;;;;5014926;27;91025;-63
2023/08/25 03:22:37;;;;;;;42.20;31.33;;;;;;;;;;5016166;27;89566;-61
2023/08/25 03:25:03;;;;;;;45.13;31.60;;;;;;;;;;5014297;27;89021;-62
2023/08/25 03:27:32;;;;;;;46.47;33.40;;;;;;;;;;5018723;27;90057;-62
2023/08/25 03:29:59;;;;;;;47.38;33.53;;;;;;;;;;5020332;27;90902;-63
2023/08/25 03:32:25;;;;;;;46.90;34.30;;;;;;;;;;5019683;27;90740;-63
2023/08/25 03:34:52;;;;;;;45.92;33.40;;;;;;;;;;5017336;27;89149;-63
2023/08/25 03:37:18;;;;;;;45.83;33.95;;;;;;;;;;5016171;27;89828;-63
2023/08/25 03:39:45;;;;;;;47.65;32.38;;;;;;;;;;5017297;27;90045;-63
2023/08/25 03:42:11;;;;;;;46.40;35.00;;;;;;;;;;5015565;27;89826;-63
2023/08/25 03:44:38;;;;;;;50.75;35.65;;;;;;;;;;5017182;27;88995;-64
2023/08/25 03:47:04;;;;;;;45.67;33.45;;;;;;;;;;5015969;27;90031;-62
2023/08/25 03:49:32;;;;;;;46.08;34.50;;;;;;;;;;5013371;27;89513;-62
2023/08/25 03:51:59;;;;;;;47.72;33.35;;;;;;;;;;5017449;27;89288;-62
2023/08/25 03:54:27;;;;;;;53.53;33.92;;;;;;;;;;5013173;27;90490;-63
2023/08/25 03:56:54;;;;;;;54.35;33.03;;;;;;;;;;5016667;27;89361;-63
2023/08/25 03:59:20;;;;;;;46.95;33.50;;;;;;;;;;5017478;27;89978;-63
2023/08/25 04:01:47;;;;;;;44.05;31.80;;;;;;;;;;5026061;27;89660;-63
2023/08/25 04:04:13;;;;;;;48.70;32.85;;;;;;;;;;5018100;27;89998;-63
2023/08/25 04:06:40;;;;;;;47.70;33.45;;;;;;;;;;5020925;27;89091;-62
2023/08/25 04:09:06;;;;;;;41.90;32.25;;;;;;;;;;5017347;27;89982;-62
2023/08/25 04:11:33;;;;;;;46.40;33.08;;;;;;;;;;5016307;27;89979;-61
2023/08/25 04:13:59;;;;;;;50.38;34.05;;;;;;;;;;5021098;27;88946;-62
2023/08/25 04:16:26;;;;;;;51.25;35.28;;;;;;;;;;5018716;27;89054;-61
2023/08/25 04:18:54;;;;;;;43.70;32.47;;;;;;;;;;5018090;27;90041;-61
2023/08/25 04:21:21;;;;;;;46.22;32.08;;;;;;;;;;5018716;27;89596;-61
2023/08/25 04:23:47;;;;;;;44.03;32.05;;;;;;;;;;5017316;27;89530;-61
2023/08/25 04:26:14;;;;;;;44.78;31.05;;;;;;;;;;5022626;28;91551;-62
2023/08/25 04:28:40;;;;;;;44.55;32.00;;;;;;;;;;5016658;27;89617;-63
2023/08/25 04:31:06;;;;;;;45.63;32.17;;;;;;;;;;5019268;27;90003;-63
2023/08/25 04:33:33;;;;;;;46.30;32.00;;;;;;;;;;5021048;27;91270;-63
2023/08/25 04:35:59;;;;;;;45.95;32.83;;;;;;;;;;5020725;27;90180;-63
2023/08/25 04:38:26;;;;;;;49.58;35.05;;;;;;;;;;5017010;27;90055;-63
2023/08/25 04:40:52;;;;;;;51.15;34.08;;;;;;;;;;5019498;27;89183;-62
2023/08/25 04:43:18;;;;;;;48.75;33.97;;;;;;;;;;5025027;27;89088;-63
2023/08/25 04:45:45;;;;;;;54.90;34.92;;;;;;;;;;5018859;27;90287;-62
2023/08/25 04:48:11;;;;;;;46.78;33.35;;;;;;;;;;5020621;27;89214;-62
2023/08/25 04:50:38;;;;;;;50.55;33.33;;;;;;;;;;5023747;27;89231;-63
2023/08/25 04:53:04;;;;;;;55.40;35.75;;;;;;;;;;5015603;27;90062;-64
2023/08/25 04:55:30;;;;;;;50.85;34.45;;;;;;;;;;5024080;27;89178;-63
2023/08/25 04:57:57;;;;;;;55.03;34.00;;;;;;;;;;5019210;27;91063;-62
2023/08/25 05:00:23;;;;;;;45.80;33.90;;;;;;;;;;5018362;27;90668;-64
2023/08/25 05:02:50;;;;;;;51.40;34.25;;;;;;;;;;5018090;27;91177;-64
2023/08/25 05:05:17;;;;;;;49.08;34.33;;;;;;;;;;5016397;27;89987;-64
2023/08/25 05:07:43;;;;;;;53.25;33.55;;;;;;;;;;5023838;27;89211;-64
2023/08/25 05:10:10;;;;;;;51.97;33.90;;;;;;;;;;5017690;27;89841;-64
2023/08/25 05:12:37;;;;;;;50.45;33.83;;;;;;;;;;5017896;27;91104;-63
2023/08/25 05:15:04;;;;;;;48.83;33.72;;;;;;;;;;5019915;27;89870;-63
2023/08/25 05:17:30;;;;;;;52.30;34.38;;;;;;;;;;5020483;27;89235;-64
2023/08/25 05:19:57;;;;;;;54.58;34.90;;;;;;;;;;5022028;27;90490;-63
2023/08/25 05:22:23;;;;;;;50.22;34.72;;;;;;;;;;5018117;27;89126;-63
2023/08/25 05:24:51;;;;;;;48.75;34.53;;;;;;;;;;5024622;27;93986;-63
2023/08/25 05:27:17;;;;;;;50.08;34.05;;;;;;;;;;5028950;27;90978;-63
2023/08/25 05:29:44;;;;;;;55.38;36.33;;;;;;;;;;5020522;27;89881;-63
2023/08/25 05:32:11;;;;;;;54.75;35.08;;;;;;;;;;5019220;27;90042;-61
2023/08/25 05:34:37;;;;;;;45.72;32.97;;;;;;;;;;5018304;27;89580;-62
2023/08/25 05:37:04;;;;;;;48.50;33.33;;;;;;;;;;5023605;27;89123;-62
2023/08/25 05:39:30;;;;;;;53.13;32.63;;;;;;;;;;5023748;27;89897;-62
2023/08/25 05:41:56;;;;;;;47.45;33.08;;;;;;;;;;5017619;27;89982;-63
2023/08/25 05:44:23;;;;;;;46.60;32.80;;;;;;;;;;5016462;27;91069;-63
2023/08/25 05:46:49;;;;;;;49.30;34.08;;;;;;;;;;5018947;27;90593;-63
2023/08/25 05:49:15;;;;;;;51.53;33.78;;;;;;;;;;5016261;27;90058;-63
2023/08/25 05:51:42;;;;;;;53.85;34.58;;;;;;;;;;5030672;27;90029;-63
2023/08/25 05:54:11;;;;;;;61.33;33.92;;;;;;;;;;5014733;27;89585;-62
2023/08/25 05:56:38;;;;;;;53.38;33.22;;;;;;;;;;5016521;27;89934;-62
2023/08/25 05:59:04;;;;;;;51.33;33.63;;;;;;;;;;5015597;27;90449;-61
2023/08/25 06:01:31;;;;;;;52.45;33.47;;;;;;;;;;5022822;27;89551;-63
2023/08/25 06:03:59;;;;;;;52.97;35.22;;;;;;;;;;5015186;27;91248;-63
2023/08/25 06:06:25;;;;;;;52.42;34.25;;;;;;;;;;5017196;27;90605;-63
2023/08/25 06:08:52;;;;;;;51.35;33.75;;;;;;;;;;5015345;27;89125;-64
2023/08/25 06:11:18;;;;;;;55.28;35.40;;;;;;;;;;5017439;27;91122;-64
2023/08/25 06:13:45;;;;;;;58.08;35.45;;;;;;;;;;5017833;27;89529;-64
2023/08/25 06:16:11;;;;;;;50.95;33.97;;;;;;;;;;5019818;27;89583;-63
2023/08/25 06:18:38;;;;;;;58.88;34.53;;;;;;;;;;5024517;27;90019;-63
2023/08/25 06:21:04;;;;;;;54.17;34.30;;;;;;;;;;5022901;27;89904;-63
2023/08/25 06:23:30;;;;;;;52.53;34.35;;;;;;;;;;5015128;27;90181;-64
2023/08/25 06:25:58;;;;;;;59.22;35.03;;;;;;;;;;5018923;27;89787;-63
2023/08/25 06:28:25;;;;;;;55.90;34.47;;;;;;;;;;5013884;27;89155;-63
2023/08/25 06:30:51;;;;;;;48.35;33.53;;;;;;;;;;5017509;27;89620;-63
2023/08/25 06:33:18;;;;;;;55.58;34.22;;;;;;;;;;5020999;27;90692;-63
2023/08/25 06:35:44;;;;;;;60.83;35.00;;;;;;;;;;5014930;27;89340;-63
2023/08/25 06:38:11;;;;;;;51.83;33.03;;;;;;;;;;5015456;27;90053;-63
2023/08/25 06:40:37;;;;;;;53.92;34.20;;;;;;;;;;5017045;27;89621;-63
2023/08/25 06:43:04;;;;;;;54.55;34.35;;;;;;;;;;5019228;27;89114;-63
2023/08/25 06:45:30;;;;;;;59.20;35.83;;;;;;;;;;5019308;27;89509;-64
2023/08/25 06:47:57;;;;;;;53.58;33.53;;;;;;;;;;5018263;27;89690;-63
2023/08/25 06:50:23;;;;;;;56.58;33.92;;;;;;;;;;5017909;27;90071;-63
2023/08/25 06:52:50;;;;;;;55.15;35.50;;;;;;;;;;5024391;27;91784;-63
2023/08/25 06:55:17;;;;;;;51.25;33.83;;;;;;;;;;5021418;27;89120;-63
2023/08/25 06:57:45;;;;;;;56.25;35.13;;;;;;;;;;5018171;27;91167;-64
2023/08/25 07:00:12;;;;;;;54.67;34.75;;;;;;;;;;5015082;27;89890;-64
2023/08/25 07:02:40;;;;;;;56.25;34.45;;;;;;;;;;5013986;27;89265;-64
2023/08/25 07:05:07;;;;;;;55.38;35.17;;;;;;;;;;5016291;27;89426;-63
2023/08/25 07:07:35;;;;;;;58.47;36.60;;;;;;;;;;5023144;27;89182;-63
2023/08/25 07:10:02;;;;;;;59.55;36.00;;;;;;;;;;5017054;27;90088;-64
2023/08/25 07:12:28;;;;;;;55.88;35.38;;;;;;;;;;5018824;27;89589;-63
2023/08/25 07:14:55;;;;;;;58.40;36.00;;;;;;;;;;5018934;27;89098;-63
2023/08/25 07:17:21;;;;;;;55.92;34.40;;;;;;;;;;5021029;27;89877;-63
2023/08/25 07:19:48;;;;;;;56.88;35.05;;;;;;;;;;5016317;27;89629;-63
2023/08/25 07:22:14;;;;;;;50.72;34.17;;;;;;;;;;5018233;27;89030;-68
2023/08/25 07:24:41;;;;;;;49.58;34.40;;;;;;;;;;5014676;27;90451;-68
2023/08/25 07:27:07;;;;;;;51.17;34.55;;;;;;;;;;5025044;27;90776;-65
2023/08/25 07:29:37;;;;;;;54.00;34.30;;;;;;;;;;5017751;27;90094;-66
2023/08/25 07:32:04;;;;;;;51.37;34.53;;;;;;;;;;5014799;27;89183;-68
2023/08/25 07:34:30;;;;;;;55.15;34.17;;;;;;;;;;5018325;27;88984;-68
2023/08/25 07:36:56;;;;;;;49.88;33.60;;;;;;;;;;5013334;27;89860;-66
2023/08/25 07:39:23;;;;;;;52.75;35.33;;;;;;;;;;5015773;27;89634;-66
2023/08/25 07:41:49;;;;;;;61.22;36.35;;;;;;;;;;5036988;27;90310;-69
2023/08/25 07:44:15;;;;;;;64.20;36.33;;;;;;;;;;5015026;27;89963;-69
2023/08/25 07:46:42;;;;;;;56.05;36.85;;;;;;;;;;5022256;27;89969;-65
2023/08/25 07:49:09;;;;;;;55.83;35.03;;;;;;;;;;5019648;27;90046;-67
2023/08/25 07:51:36;;;;;;;50.03;32.97;;;;;;;;;;5020293;27;89441;-67
2023/08/25 07:54:06;;;;;;;54.35;34.40;;;;;;;;;;5021401;27;88995;-67
2023/08/25 07:56:33;;;;;;;55.92;33.72;;;;;;;;;;5016387;27;89859;-68
2023/08/25 07:58:59;;;;;;;56.70;34.33;;;;;;;;;;5016996;27;90662;-68
2023/08/25 08:01:25;;;;;;;54.00;34.38;;;;;;;;;;5026236;27;92884;-68
2023/08/25 08:03:52;;;;;;;54.60;34.05;;;;;;;;;;5016243;27;90436;-67
2023/08/25 08:06:18;;;;;;;51.63;33.70;;;;;;;;;;5025809;27;89606;-67
2023/08/25 08:08:45;;;;;;;51.55;33.63;;;;;;;;;;5016626;27;89249;-67
2023/08/25 08:11:11;;;;;;;44.03;31.55;;;;;;;;;;5019028;27;89080;-66
2023/08/25 08:13:39;;;;;;;47.60;32.00;;;;;;;;;;5021009;27;89000;-67
2023/08/25 08:16:05;;;;;;;47.92;32.35;;;;;;;;;;5029388;27;90018;-67
2023/08/25 08:18:32;;;;;;;49.95;33.38;;;;;;;;;;5023697;27;89301;-67
2023/08/25 08:20:58;;;;;;;49.58;34.63;;;;;;;;;;5022170;27;90340;-68
2023/08/25 08:23:24;;;;;;;57.50;35.47;;;;;;;;;;5017071;27;90174;-68
2023/08/25 08:25:51;;;;;;;47.92;34.60;;;;;;;;;;5020594;27;89650;-66
2023/08/25 08:28:17;;;;;;;59.03;37.20;;;;;;;;;;5017077;27;89080;-66
2023/08/25 08:30:44;;;;;;;52.75;35.33;;;;;;;;;;5020752;27;91081;-66
2023/08/25 08:33:15;;;;;;;53.72;35.88;;;;;;;;;;5018566;27;89118;-67
2023/08/25 08:35:41;;;;;;;52.75;34.05;;;;;;;;;;5017983;27;91059;-66
2023/08/25 08:38:08;;;;;;;50.13;33.30;;;;;;;;;;5017167;27;89732;-65
2023/08/25 08:40:35;;;;;;;51.75;33.53;;;;;;;;;;5016103;27;89989;-65
2023/08/25 08:43:04;;;;;;;51.33;33.47;;;;;;;;;;5019388;27;90000;-65
2023/08/25 08:45:33;;;;;;;63.17;33.63;;;;;;;;;;5023470;27;89145;-65
2023/08/25 08:48:03;;;;;;;52.20;32.83;;;;;;;;;;5024599;27;89220;-65
2023/08/25 08:50:30;;;;;;;52.13;34.25;;;;;;;;;;5024935;27;91003;-65
2023/08/25 08:52:57;;;;;;;53.55;34.72;;;;;;;;;;5019354;27;89732;-65
2023/08/25 08:55:23;;;;;;;49.67;33.63;;;;;;;;;;5020726;27;90526;-65
2023/08/25 08:57:50;;;;;;;49.70;33.55;;;;;;;;;;5016143;27;89561;-66
2023/08/25 09:00:18;;;;;;;50.13;32.03;;;;;;;;;;5019364;27;90574;-65
2023/08/25 09:02:48;;;;;;;51.55;32.63;;;;;;;;;;5020518;27;90136;-65
2023/08/25 09:05:15;;;;;;;47.88;32.60;;;;;;;;;;5021117;27;90315;-66
2023/08/25 09:07:43;;;;;;;49.55;32.85;;;;;;;;;;5016762;27;88858;-66
2023/08/25 09:10:10;;;;;;;51.88;33.05;;;;;;;;;;5018132;27;90225;-66
2023/08/25 09:12:37;;;;;;;51.85;34.17;;;;;;;;;;5015810;27;90793;-66
2023/08/25 09:15:06;;;;;;;54.50;32.92;;;;;;;;;;5020510;27;89381;-66
2023/08/25 09:17:34;;;;;;;47.80;32.95;;;;;;;;;;5023123;27;90580;-66
2023/08/25 09:20:04;;;;;;;48.80;34.08;;;;;;;;;;5016828;27;89846;-66
2023/08/25 09:22:31;;;;;;;50.25;32.35;;;;;;;;;;5015902;27;89954;-67
2023/08/25 09:24:57;;;;;;;51.33;33.03;;;;;;;;;;5019457;27;89627;-64
2023/08/25 09:27:25;;;;;;;47.58;31.55;;;;;;;;;;5015676;27;89276;-64
2023/08/25 09:29:59;;;;;;;46.65;30.80;;;;;;;;;;5016061;27;90013;-64
2023/08/25 09:32:27;;;;;;;42.63;29.75;;;;;;;;;;5016013;27;90036;-64
2023/08/25 09:34:54;;;;;;;44.80;30.42;;;;;;;;;;5015191;27;89237;-64
2023/08/25 09:37:20;;;;;;;39.20;29.00;;;;;;;;;;5021935;27;90048;-64
2023/08/25 09:39:47;;;;;;;47.13;28.40;;;;;;;;;;5013148;27;89701;-64
2023/08/25 09:42:13;;;;;;;38.70;27.63;;;;;;;;;;5021563;27;90032;-64
2023/08/25 09:44:40;;;;;;;40.63;27.33;;;;;;;;;;5021932;27;90065;-67
2023/08/25 09:47:09;;;;;;;40.03;29.08;;;;;;;;;;5026105;27;89356;-67
2023/08/25 09:49:40;;;;;;;38.28;27.90;;;;;;;;;;5024748;27;89976;-65
2023/08/25 09:52:09;;;;;;;38.72;25.65;;;;;;;;;;5022608;27;89765;-62
2023/08/25 09:54:35;;;;;;;30.33;24.13;;;;;;;;;;5019120;27;89953;-61
2023/08/25 09:57:02;;;;;;;33.80;23.77;;;;;;;;;;5016546;27;89024;-65
2023/08/25 09:59:29;;;;;;;32.30;24.55;;;;;;;;;;5017976;27;89522;-66
2023/08/25 10:01:57;;;;;;;26.85;22.08;;;;;;;;;;5014078;27;91045;-65
2023/08/25 10:04:24;;;;;;;26.20;20.83;;;;;;;;;;5017999;27;89581;-66
2023/08/25 10:06:51;;;;;;;28.40;19.75;;;;;;;;;;5015323;27;89337;-66
2023/08/25 10:09:19;;;;;;;22.95;16.67;;;;;;;;;;5017652;27;92527;-66
2023/08/25 10:11:48;;;;;;;20.20;15.63;;;;;;;;;;5015620;27;89185;-66
2023/08/25 10:14:14;;;;;;;21.88;13.60;;;;;;;;;;5016398;27;88935;-66
2023/08/25 10:16:44;;;;;;;12.55;10.13;;;;;;;;;;5016798;27;89292;-66
2023/08/25 10:19:14;;;;;;;9.00;7.85;;;;;;;;;;5013302;27;89573;-67
2023/08/25 10:21:47;;;;;;;10.45;6.55;;;;;;;;;;5026085;27;88243;-66
2023/08/25 10:24:14;;;;;;;7.03;5.85;;;;;;;;;;5015567;27;88417;-67
2023/08/25 10:26:42;;;;;;;6.13;5.53;;;;;;;;;;5015045;27;90180;-67
2023/08/25 10:29:09;;;;;;;6.05;5.55;;;;;;;;;;5018101;27;88889;-66
2023/08/25 10:31:35;;;;;;;14.60;6.63;;;;;;;;;;5015953;27;90541;-67
2023/08/25 10:34:02;;;;;;;12.20;8.02;;;;;;;;;;5014557;27;90289;-66
2023/08/25 10:36:28;;;;;;;9.40;8.25;;;;;;;;;;5024877;27;88080;-66
2023/08/25 10:38:54;;;;;;;9.00;7.70;;;;;;;;;;5018736;27;87927;-67
2023/08/25 10:41:23;;;;;;;8.35;7.55;;;;;;;;;;5021000;27;89952;-66
2023/08/25 10:43:53;;;;;;;10.40;8.98;;;;;;;;;;5023925;27;89484;-67
2023/08/25 10:46:20;;;;;;;11.00;9.10;;;;;;;;;;5020068;27;88218;-66
2023/08/25 10:49:06;;;;;;;9.95;8.90;;;;;;;;;;5015604;27;88497;-66
2023/08/25 10:51:37;;;;;;;10.45;8.93;;;;;;;;;;5015411;27;88502;-68
2023/08/25 10:54:03;;;;;;;10.20;9.18;;;;;;;;;;5017901;27;89920;-67
2023/08/25 10:56:30;;;;;;;13.32;9.82;;;;;;;;;;5020992;27;88968;-66
2023/08/25 10:58:59;;;;;;;9.95;9.05;;;;;;;;;;5016041;27;89351;-66
2023/08/25 11:01:27;;;;;;;13.27;11.32;;;;;;;;;;5017947;27;89086;-66
2023/08/25 11:04:07;;;;;;;15.65;11.70;;;;;;;;;;5017972;27;89033;-66
2023/08/25 11:06:45;;;;;;;17.88;11.95;;;;;;;;;;5022231;27;91995;-66
2023/08/25 11:09:17;;;;;;;23.17;13.23;;;;;;;;;;5014592;27;91135;-66
2023/08/25 11:11:45;;;;;;;14.27;12.10;;;;;;;;;;5012355;27;89425;-66
2023/08/25 11:14:12;;;;;;;14.82;12.45;;;;;;;;;;5016664;27;89140;-66
2023/08/25 11:16:42;;;;;;;15.85;12.25;;;;;;;;;;5022043;27;89786;-66
2023/08/25 11:19:09;;;;;;;14.98;13.00;;;;;;;;;;5020620;27;89241;-66
2023/08/25 11:21:35;;;;;;;18.42;14.25;;;;;;;;;;5018284;27;89948;-66
2023/08/25 11:24:02;;;;;;;19.27;14.35;;;;;;;;;;5020585;27;90079;-65
2023/08/25 11:26:30;;;;;;;16.42;14.65;;;;;;;;;;5027838;27;89212;-65
2023/08/25 11:28:56;;;;;;;19.95;15.18;;;;;;;;;;5025232;27;90023;-66
2023/08/25 11:31:23;;;;;;;17.33;14.57;;;;;;;;;;5017671;27;90616;-66
2023/08/25 11:33:54;;;;;;;17.90;14.00;;;;;;;;;;5014562;27;93756;-65
2023/08/25 11:36:22;;;;;;;22.35;15.77;;;;;;;;;;5014442;27;92191;-65
2023/08/25 11:38:49;;;;;;;18.75;15.65;;;;;;;;;;5015521;27;93433;-66
2023/08/25 11:41:16;;;;;;;17.52;14.43;;;;;;;;;;5012388;27;93350;-65
2023/08/25 11:43:44;;;;;;;18.83;14.40;;;;;;;;;;5013526;27;94907;-66
2023/08/25 11:46:12;;;;;;;15.05;13.15;;;;;;;;;;5014618;27;96568;-68
2023/08/25 11:48:38;;;;;;;17.23;12.85;;;;;;;;;;5020146;27;93702;-68
2023/08/25 11:51:04;;;;;;;16.10;12.20;;;;;;;;;;5014328;27;93232;-68
2023/08/25 11:53:31;;;;;;;17.45;13.57;;;;;;;;;;5016610;27;94876;-68
2023/08/25 11:56:05;;;;;;;19.30;14.85;;;;;;;;;;5019008;27;92553;-68
2023/08/25 11:58:32;;;;;;;22.55;15.43;;;;;;;;;;5013582;27;93344;-68
2023/08/25 12:01:01;;;;;;;21.40;15.43;;;;;;;;;;5017741;27;93452;-68
2023/08/25 12:03:28;;;;;;;19.45;15.65;;;;;;;;;;5016133;27;93201;-68
2023/08/25 12:05:54;;;;;;;23.02;16.15;;;;;;;;;;5016097;27;94183;-68
2023/08/25 12:08:22;;;;;;;19.80;15.20;;;;;;;;;;5011742;27;96869;-66
2023/08/25 12:10:49;;;;;;;21.52;15.63;;;;;;;;;;5017177;27;92393;-68
2023/08/25 12:13:22;;;;;;;19.35;15.55;;;;;;;;;;5021711;27;93765;-68
2023/08/25 12:15:51;;;;;;;20.67;15.27;;;;;;;;;;5014019;27;92527;-68
2023/08/25 12:18:18;;;;;;;26.58;17.98;;;;;;;;;;5013725;27;94271;-68
2023/08/25 12:20:45;;;;;;;34.55;18.92;;;;;;;;;;5019909;27;93580;-68
2023/08/25 12:23:11;;;;;;;28.30;18.63;;;;;;;;;;5015933;27;92408;-69
2023/08/25 12:25:38;;;;;;;23.15;18.33;;;;;;;;;;5014546;27;93157;-67
2023/08/25 12:28:04;;;;;;;26.85;17.48;;;;;;;;;;5016452;27;92682;-67
2023/08/25 12:30:31;;;;;;;25.83;17.83;;;;;;;;;;5014136;27;93047;-66
2023/08/25 12:32:57;;;;;;;23.52;16.58;;;;;;;;;;5014810;27;94944;-67
2023/08/25 12:35:24;;;;;;;23.70;18.45;;;;;;;;;;5018423;27;92647;-67
2023/08/25 12:37:51;;;;;;;24.40;17.10;;;;;;;;;;5017874;27;94503;-67
2023/08/25 12:40:21;;;;;;;24.63;16.45;;;;;;;;;;5012479;27;93402;-67
2023/08/25 12:42:51;;;;;;;18.92;14.02;;;;;;;;;;5022801;27;92912;-67
2023/08/25 12:45:18;;;;;;;21.73;14.00;;;;;;;;;;5019536;27;94295;-67
2023/08/25 12:47:45;;;;;;;15.38;13.35;;;;;;;;;;5016142;27;94047;-67
2023/08/25 12:50:11;;;;;;;19.08;12.88;;;;;;;;;;5018793;27;91630;-63
2023/08/25 12:52:37;;;;;;;15.13;12.27;;;;;;;;;;5019599;27;93497;-65
2023/08/25 12:55:04;;;;;;;13.98;12.13;;;;;;;;;;5015310;27;92588;-65
2023/08/25 12:57:46;;;;;;;14.73;12.18;;;;;;;;;;5012253;27;94765;-66
2023/08/25 13:00:13;;;;;;;21.15;10.95;;;;;;;;;;5016538;27;94434;-66
2023/08/25 13:02:39;;;;;;;14.80;11.82;;;;;;;;;;5013134;27;92429;-66
2023/08/25 13:05:09;;;;;;;12.02;10.65;;;;;;;;;;5017938;27;95939;-66
2023/08/25 13:07:39;;;;;;;14.15;12.75;;;;;;;;;;5024611;27;95094;-67
2023/08/25 13:10:08;;;;;;;18.45;13.63;;;;;;;;;;5013102;27;92738;-66
2023/08/25 13:12:35;;;;;;;19.80;16.15;;;;;;;;;;5016567;27;93321;-66
2023/08/25 13:15:02;;;;;;;22.60;15.93;;;;;;;;;;5020466;27;92683;-66
2023/08/25 13:17:29;;;;;;;21.17;16.05;;;;;;;;;;5014437;27;92886;-67
2023/08/25 13:19:55;;;;;;;23.77;17.05;;;;;;;;;;5014265;27;94074;-65
2023/08/25 13:22:22;;;;;;;22.48;17.13;;;;;;;;;;5011507;27;95093;-67
2023/08/25 13:24:48;;;;;;;24.13;17.70;;;;;;;;;;5017623;27;95922;-63
2023/08/25 13:27:15;;;;;;;22.05;17.58;;;;;;;;;;5012498;27;93487;-66
2023/08/25 13:29:42;;;;;;;26.08;18.92;;;;;;;;;;5011736;27;92641;-67
2023/08/25 13:32:08;;;;;;;22.95;18.40;;;;;;;;;;5022163;27;94362;-66
2023/08/25 13:34:34;;;;;;;28.52;19.88;;;;;;;;;;5019646;27;94394;-67
2023/08/25 13:37:02;;;;;;;35.28;22.77;;;;;;;;;;5020872;27;92501;-66
2023/08/25 13:39:28;;;;;;;43.17;23.33;;;;;;;;;;5014747;27;92735;-67
2023/08/25 13:41:55;;;;;;;40.55;24.58;;;;;;;;;;5012609;27;92466;-67
2023/08/25 13:44:22;;;;;;;38.70;24.10;;;;;;;;;;5013753;27;93347;-67
2023/08/25 13:46:48;;;;;;;48.05;28.38;;;;;;;;;;5020869;27;95785;-67
2023/08/25 13:49:15;;;;;;;41.90;29.48;;;;;;;;;;5013045;27;92419;-67
2023/08/25 13:51:41;;;;;;;48.63;31.40;;;;;;;;;;5022281;27;93276;-67
2023/08/25 13:54:08;;;;;;;52.90;32.50;;;;;;;;;;5014086;27;93365;-66
2023/08/25 13:56:35;;;;;;;46.88;31.38;;;;;;;;;;5013144;27;92570;-66
2023/08/25 13:59:02;;;;;;;47.40;30.98;;;;;;;;;;5015988;27;93247;-66
2023/08/25 14:01:28;;;;;;;44.45;30.10;;;;;;;;;;5012770;27;92466;-67
2023/08/25 14:03:55;;;;;;;44.35;28.63;;;;;;;;;;5012934;27;93262;-67
2023/08/25 14:06:21;;;;;;;42.60;27.95;;;;;;;;;;5020884;27;93411;-67
2023/08/25 14:08:48;;;;;;;42.22;27.23;;;;;;;;;;5016289;27;92514;-70
2023/08/25 14:11:14;;;;;;;41.33;26.75;;;;;;;;;;5010831;27;95755;-69
2023/08/25 14:13:41;;;;;;;38.92;24.88;;;;;;;;;;5017558;27;94384;-68
2023/08/25 14:16:07;;;;;;;33.10;24.42;;;;;;;;;;5017825;27;92541;-70
2023/08/25 14:18:34;;;;;;;33.33;23.35;;;;;;;;;;5014120;27;94162;-70